Terminal Aerodrome Forecast
Issued by NWS

Home | Current Version | Previous Version | Text Only | Print | Product List | Glossary Off
Versions: 1 2 3 4 5 6 7 8 9 10 11 12

000
FTUS43 KBIS 201100
TAFMOT
TAF
KMOT 201131Z 2012/2112 23007KT P6SM SCT018
     FM201300 24006KT P6SM OVC018
     FM202300 17006KT P6SM BKN030
     FM210200 17008KT P6SM BKN035=

USA.gov is the U.S. government's official web portal to all federal, state and local government web resources and services.